Eastern Galaxy — DUCH — position and weather

sailwx.info

Track history (hours):
 
Tides and Currents Weather Stations Pressure Air Temp Water Temp Dewpoint Dewpoint Depression Visibility Wind Speed Wind Dir Waves Ship Positions

Eastern Galaxy

Last reported at 2017-Feb-20 12:33 UTC. Time now 2017-Feb-20 18:24 UTC.
Position N 33°55' E 134°56'.

Length 100 m; draft 6.8 m.

Type: Cargo ship. MMSI: 548829000.

Date/timePositionNaut miles runAvg speedWind from/ knotsBaromVisibWave heightAir tempDewpointWater temp
2017-Feb-20 12:33N 33°55' E 134°56'1110.7
2017-Feb-20 11:33N 34°05' E 134°57'1312.7
2017-Feb-20 10:33N 34°18' E 134°59'1211.8
2017-Feb-20 09:33N 34°27' E 135°08'1111.1
2017-Feb-20 08:33N 34°35' E 135°17'8 2.5
2017-Feb-20 05:17N 34°39' E 135°26'0 0.0
2017-Feb-20 03:17N 34°39' E 135°26'0 0.1
2017-Feb-20 02:23N 34°39' E 135°26'0 0.1
2017-Feb-20 01:29N 34°39' E 135°26'0 0.0
2017-Feb-20 00:29N 34°39' E 135°26'0 0.0
2017-Feb-19 23:29N 34°39' E 135°26'0 0.3
2017-Feb-19 22:33N 34°39' E 135°25'4 4.0
2017-Feb-19 21:33N 34°37' E 135°21'1 0.6
2017-Feb-19 20:28N 34°36' E 135°21'0 0.0
2017-Feb-19 19:22N 34°36' E 135°21'0 0.0
2017-Feb-19 18:28N 34°36' E 135°21'0 0.0
2017-Feb-19 17:28N 34°36' E 135°21'0 0.0
2017-Feb-19 16:28N 34°36' E 135°21'0 0.0
2017-Feb-19 15:28N 34°36' E 135°21'0 0.0
2017-Feb-19 14:22N 34°36' E 135°21'0 0.0
2017-Feb-19 13:16N 34°36' E 135°21'0 0.1
2017-Feb-19 12:28N 34°36' E 135°21'0 0.0
2017-Feb-19 11:28N 34°36' E 135°21'0 0.0
2017-Feb-19 09:22N 34°36' E 135°21'0 0.0
2017-Feb-19 08:28N 34°36' E 135°21'0 0.1
2017-Feb-19 07:28N 34°36' E 135°21'0 0.0
2017-Feb-19 06:22N 34°36' E 135°21'0 0.0
2017-Feb-19 05:22N 34°36' E 135°21'0 0.0
2017-Feb-19 04:22N 34°36' E 135°21'0 0.0
2017-Feb-19 03:22N 34°36' E 135°21'0 0.0
2017-Feb-19 02:16N 34°36' E 135°21'0 0.1
2017-Feb-19 01:22N 34°36' E 135°21'0 0.1
2017-Feb-19 00:33N 34°36' E 135°21'3 3.4
2017-Feb-18 23:33N 34°36' E 135°17'10 9.9
2017-Feb-18 22:33N 34°35' E 135°05'1211.3
2017-Feb-18 21:30N 34°34' E 134°51'10910.8
2017-Feb-18 11:25N 34°00' E 132°46'910.6
2017-Feb-18 10:33N 33°54' E 132°38'1111.0
2017-Feb-18 09:33N 33°47' E 132°28'1211.4
2017-Feb-18 08:33N 33°42' E 132°15'  
2017-Feb-14 20:29N 33°10' E 132°08'  
Track history (hours):
 
Tides and Currents Weather Stations Pressure Air Temp Water Temp Dewpoint Dewpoint Depression Visibility Wind Speed Wind Dir Waves Ship Positions

Eastern Galaxy

Last reported at 2017-Feb-20 12:33 UTC. Time now 2017-Feb-20 18:24 UTC.
Position N 33°55' E 134°56'.

Length 100 m; draft 6.8 m.

Type: Cargo ship. MMSI: 548829000.

Date/timePositionNaut miles runAvg speedWind from/ knotsBaromVisibWave heightAir tempDewpointWater temp
2017-Feb-20 12:33N 33°55' E 134°56'1110.7
2017-Feb-20 11:33N 34°05' E 134°57'1312.7
2017-Feb-20 10:33N 34°18' E 134°59'1211.8
2017-Feb-20 09:33N 34°27' E 135°08'1111.1
2017-Feb-20 08:33N 34°35' E 135°17'8 2.5
2017-Feb-20 05:17N 34°39' E 135°26'0 0.0
2017-Feb-20 03:17N 34°39' E 135°26'0 0.1
2017-Feb-20 02:23N 34°39' E 135°26'0 0.1
2017-Feb-20 01:29N 34°39' E 135°26'0 0.0
2017-Feb-20 00:29N 34°39' E 135°26'0 0.0
2017-Feb-19 23:29N 34°39' E 135°26'0 0.3
2017-Feb-19 22:33N 34°39' E 135°25'4 4.0
2017-Feb-19 21:33N 34°37' E 135°21'1 0.6
2017-Feb-19 20:28N 34°36' E 135°21'0 0.0
2017-Feb-19 19:22N 34°36' E 135°21'0 0.0
2017-Feb-19 18:28N 34°36' E 135°21'0 0.0
2017-Feb-19 17:28N 34°36' E 135°21'0 0.0
2017-Feb-19 16:28N 34°36' E 135°21'0 0.0
2017-Feb-19 15:28N 34°36' E 135°21'0 0.0
2017-Feb-19 14:22N 34°36' E 135°21'0 0.0
2017-Feb-19 13:16N 34°36' E 135°21'0 0.1
2017-Feb-19 12:28N 34°36' E 135°21'0 0.0
2017-Feb-19 11:28N 34°36' E 135°21'0 0.0
2017-Feb-19 09:22N 34°36' E 135°21'0 0.0
2017-Feb-19 08:28N 34°36' E 135°21'0 0.1
2017-Feb-19 07:28N 34°36' E 135°21'0 0.0
2017-Feb-19 06:22N 34°36' E 135°21'0 0.0
2017-Feb-19 05:22N 34°36' E 135°21'0 0.0
2017-Feb-19 04:22N 34°36' E 135°21'0 0.0
2017-Feb-19 03:22N 34°36' E 135°21'0 0.0
2017-Feb-19 02:16N 34°36' E 135°21'0 0.1
2017-Feb-19 01:22N 34°36' E 135°21'0 0.1
2017-Feb-19 00:33N 34°36' E 135°21'3 3.4
2017-Feb-18 23:33N 34°36' E 135°17'10 9.9
2017-Feb-18 22:33N 34°35' E 135°05'1211.3
2017-Feb-18 21:30N 34°34' E 134°51'10910.8
2017-Feb-18 11:25N 34°00' E 132°46'910.6
2017-Feb-18 10:33N 33°54' E 132°38'1111.0
2017-Feb-18 09:33N 33°47' E 132°28'1211.4
2017-Feb-18 08:33N 33°42' E 132°15'  
2017-Feb-14 20:29N 33°10' E 132°08'  

Dump ship's entire track history